Time;durP1;ratioP1;P1;durP2;ratioP2;P2;SDS_P1;SDS_P2;PMS_P1;PMS_P2;Temp;Humidity;BMP_temperature;BMP_pressure;BME280_temperature;BME280_humidity;BME280_pressure;Samples;Min_cycle;Max_cycle;Signal;HPM_P1;HPM_P2
2023/10/31 00:00:42;;;;;;;26.88;15.73;;;12.50;99.90;;;;;;5030570;28;20080;-71
2023/10/31 00:03:08;;;;;;;26.15;15.93;;;12.40;99.90;;;;;;5029505;28;20041;-70
2023/10/31 00:05:33;;;;;;;24.10;15.18;;;12.50;99.90;;;;;;5032163;28;20605;-69
2023/10/31 00:07:59;;;;;;;29.10;15.93;;;12.40;99.90;;;;;;5034854;28;20132;-70
2023/10/31 00:10:24;;;;;;;25.58;15.55;;;12.40;99.90;;;;;;5016866;28;20145;-70
2023/10/31 00:12:50;;;;;;;25.02;15.70;;;12.50;99.90;;;;;;5032659;28;20204;-70
2023/10/31 00:15:16;;;;;;;27.42;16.38;;;12.40;99.90;;;;;;5033881;28;20489;-70
2023/10/31 00:17:41;;;;;;;26.48;16.25;;;12.50;99.90;;;;;;5033714;28;20038;-69
2023/10/31 00:20:07;;;;;;;26.23;15.73;;;12.50;99.90;;;;;;5028095;28;20037;-69
2023/10/31 00:22:33;;;;;;;23.90;15.45;;;12.50;99.90;;;;;;5043639;28;20041;-70
2023/10/31 00:24:58;;;;;;;24.90;15.10;;;12.50;99.90;;;;;;5034413;28;20505;-70
2023/10/31 00:27:24;;;;;;;25.23;15.75;;;12.50;99.90;;;;;;5031798;28;20067;-69
2023/10/31 00:29:49;;;;;;;29.95;16.90;;;12.50;99.90;;;;;;5020979;28;20092;-69
2023/10/31 00:32:15;;;;;;;28.30;17.45;;;12.50;99.90;;;;;;5024401;28;20045;-69
2023/10/31 00:34:40;;;;;;;29.10;17.02;;;12.60;99.90;;;;;;5015869;28;20037;-70
2023/10/31 00:37:06;;;;;;;27.70;16.98;;;12.60;99.90;;;;;;5024750;28;20088;-70
2023/10/31 00:39:33;;;;;;;29.45;16.73;;;12.60;99.90;;;;;;5019404;28;20033;-70
2023/10/31 00:41:59;;;;;;;32.88;17.35;;;12.60;99.90;;;;;;5030462;28;20073;-70
2023/10/31 00:44:25;;;;;;;26.58;16.58;;;12.60;99.90;;;;;;5030626;28;20084;-70
2023/10/31 00:46:50;;;;;;;25.42;16.50;;;12.60;99.90;;;;;;5020701;28;20060;-69
2023/10/31 00:49:16;;;;;;;31.58;17.33;;;12.60;99.90;;;;;;5027794;28;20410;-69
2023/10/31 00:51:41;;;;;;;27.23;17.58;;;12.60;99.90;;;;;;5030538;28;20037;-68
2023/10/31 00:54:07;;;;;;;30.75;17.42;;;12.60;99.90;;;;;;5011524;28;20091;-68
2023/10/31 00:56:32;;;;;;;31.15;18.48;;;12.60;99.90;;;;;;5030024;28;20029;-69
2023/10/31 00:58:58;;;;;;;29.70;18.02;;;12.60;99.90;;;;;;5030385;28;20029;-68
2023/10/31 01:01:23;;;;;;;30.08;17.23;;;12.60;99.90;;;;;;5028256;28;20036;-71
2023/10/31 01:03:49;;;;;;;33.85;18.30;;;12.60;99.90;;;;;;5012321;28;20495;-70
2023/10/31 01:06:14;;;;;;;33.90;18.67;;;12.70;99.90;;;;;;5029881;28;20502;-71
2023/10/31 01:08:40;;;;;;;28.98;17.08;;;12.60;99.90;;;;;;5029345;28;20037;-70
2023/10/31 01:11:06;;;;;;;30.98;17.33;;;12.60;99.90;;;;;;5029956;28;20125;-71
2023/10/31 01:13:31;;;;;;;32.92;18.20;;;12.60;99.90;;;;;;5011902;28;20065;-69
2023/10/31 01:15:57;;;;;;;32.42;18.13;;;12.60;99.90;;;;;;5030268;28;20088;-69
2023/10/31 01:18:22;;;;;;;32.95;18.77;;;12.60;99.90;;;;;;5030289;28;20037;-69
2023/10/31 01:20:48;;;;;;;33.38;18.63;;;12.60;99.90;;;;;;5030055;28;20167;-69
2023/10/31 01:23:13;;;;;;;35.88;18.15;;;12.70;99.90;;;;;;5014695;28;20132;-69
2023/10/31 01:25:39;;;;;;;33.35;18.25;;;12.70;99.90;;;;;;5029969;28;20131;-69
2023/10/31 01:28:04;;;;;;;31.90;17.35;;;12.60;99.90;;;;;;5023019;28;20493;-69
2023/10/31 01:30:30;;;;;;;9.95;5.90;;;12.70;99.90;;;;;;5037844;28;20677;-69
2023/10/31 01:32:56;;;;;;;3.60;2.45;;;12.60;99.90;;;;;;5027002;28;20038;-69
2023/10/31 01:35:21;;;;;;;2.35;1.58;;;12.30;99.90;;;;;;5029773;28;20037;-69
2023/10/31 01:37:47;;;;;;;2.17;1.08;;;12.00;99.90;;;;;;5012621;28;20041;-69
2023/10/31 01:40:13;;;;;;;1.90;1.40;;;11.80;99.90;;;;;;5014929;28;20072;-69
2023/10/31 01:42:38;;;;;;;1.15;1.05;;;11.60;99.90;;;;;;5039341;28;20049;-69
2023/10/31 01:45:04;;;;;;;1.30;1.20;;;11.40;99.90;;;;;;5019465;28;20045;-69
2023/10/31 01:47:30;;;;;;;0.63;0.63;;;11.30;99.90;;;;;;5016649;28;20045;-69
2023/10/31 01:49:56;;;;;;;2.25;0.77;;;11.20;99.90;;;;;;5034040;28;20693;-69
2023/10/31 01:52:21;;;;;;;0.60;0.60;;;11.10;99.90;;;;;;5015851;28;20628;-69
2023/10/31 01:54:47;;;;;;;0.30;0.30;;;11.00;99.90;;;;;;5020190;28;20041;-69
2023/10/31 01:57:14;;;;;;;0.52;0.52;;;11.00;99.90;;;;;;5033434;28;20045;-70
2023/10/31 01:59:39;;;;;;;0.45;0.45;;;10.90;99.90;;;;;;5032499;28;20049;-70
2023/10/31 02:02:05;;;;;;;0.43;0.43;;;10.90;99.90;;;;;;5033557;28;20037;-70
2023/10/31 02:04:31;;;;;;;0.50;0.50;;;10.90;99.90;;;;;;5023232;28;20038;-70
2023/10/31 02:06:56;;;;;;;0.65;0.47;;;10.80;99.90;;;;;;5033870;28;20041;-70
2023/10/31 02:09:24;;;;;;;1.70;0.60;;;10.80;99.90;;;;;;5020582;28;20091;-70
2023/10/31 02:11:50;;;;;;;3.00;0.88;;;10.70;99.90;;;;;;5020891;28;20041;-70
2023/10/31 02:14:16;;;;;;;2.65;1.00;;;10.70;99.90;;;;;;5016904;28;20040;-70
2023/10/31 02:16:41;;;;;;;2.55;1.02;;;10.60;99.90;;;;;;5011054;28;20511;-70
2023/10/31 02:19:07;;;;;;;1.80;0.98;;;10.60;99.90;;;;;;5019094;28;20081;-70
2023/10/31 02:21:33;;;;;;;3.28;1.45;;;10.50;99.90;;;;;;5033336;28;20025;-70
2023/10/31 02:24:00;;;;;;;1.30;0.90;;;10.50;99.90;;;;;;5032419;28;20517;-70
2023/10/31 02:26:33;;;;;;;2.40;0.95;;;10.50;99.90;;;;;;5031723;28;20084;-70
2023/10/31 02:28:59;;;;;;;3.20;1.08;;;10.50;99.90;;;;;;5022496;28;20037;-70
2023/10/31 02:31:25;;;;;;;3.05;1.10;;;10.50;99.90;;;;;;5023159;28;20038;-71
2023/10/31 02:33:51;;;;;;;2.13;1.08;;;10.40;99.90;;;;;;5032801;28;20132;-70
2023/10/31 02:36:17;;;;;;;4.72;1.30;;;10.40;99.90;;;;;;5033342;28;20171;-71
2023/10/31 02:38:42;;;;;;;3.92;1.20;;;10.40;99.90;;;;;;5032695;28;20033;-70
2023/10/31 02:41:08;;;;;;;4.53;1.30;;;10.40;99.90;;;;;;5030509;28;20053;-70
2023/10/31 02:43:34;;;;;;;3.53;1.20;;;10.40;99.90;;;;;;5046721;28;20095;-70
2023/10/31 02:45:59;;;;;;;5.43;1.52;;;10.40;99.90;;;;;;5033998;28;20080;-71
2023/10/31 02:48:26;;;;;;;5.10;1.35;;;10.40;99.90;;;;;;5033896;28;20516;-70
2023/10/31 02:50:52;;;;;;;5.97;1.20;;;10.30;99.90;;;;;;5028691;28;20044;-70
2023/10/31 02:53:21;;;;;;;4.35;1.20;;;10.30;99.90;;;;;;5033881;28;20045;-70
2023/10/31 02:55:46;;;;;;;6.55;1.70;;;10.30;99.90;;;;;;5033572;28;20044;-70
2023/10/31 02:58:12;;;;;;;5.32;1.40;;;10.30;99.90;;;;;;5030680;28;20037;-70
2023/10/31 03:00:37;;;;;;;4.93;1.70;;;10.30;99.90;;;;;;5025568;28;20045;-71
2023/10/31 03:03:03;;;;;;;5.38;1.50;;;10.30;99.90;;;;;;5023987;28;20437;-70
2023/10/31 03:05:29;;;;;;;4.07;1.52;;;10.30;99.90;;;;;;5015038;28;20041;-70
2023/10/31 03:07:55;;;;;;;6.45;1.90;;;10.30;99.90;;;;;;5031133;28;20030;-71
2023/10/31 03:10:21;;;;;;;4.45;2.25;;;10.30;99.90;;;;;;5027505;28;20056;-71
2023/10/31 03:12:47;;;;;;;6.32;2.40;;;10.30;99.90;;;;;;5033542;28;20046;-70
2023/10/31 03:15:13;;;;;;;6.75;3.00;;;10.30;99.90;;;;;;5028074;28;20033;-70
2023/10/31 03:17:38;;;;;;;7.97;3.70;;;10.30;99.90;;;;;;5017034;28;20033;-70
2023/10/31 03:20:04;;;;;;;11.55;4.45;;;10.30;99.90;;;;;;5033293;28;20033;-71
2023/10/31 03:22:30;;;;;;;9.60;4.30;;;10.40;99.90;;;;;;5015047;28;20132;-70
2023/10/31 03:24:56;;;;;;;10.32;4.68;;;10.30;99.90;;;;;;5030054;28;20484;-70
2023/10/31 03:27:21;;;;;;;8.30;4.30;;;10.40;99.90;;;;;;5032585;28;20474;-70
2023/10/31 03:29:47;;;;;;;7.10;3.72;;;10.40;99.90;;;;;;5033180;28;20522;-70
2023/10/31 03:32:12;;;;;;;7.97;3.15;;;10.30;99.90;;;;;;4999379;28;20124;-70
2023/10/31 03:34:38;;;;;;;6.13;3.08;;;10.30;99.90;;;;;;5021429;28;20121;-70
2023/10/31 03:37:04;;;;;;;6.10;2.78;;;10.40;99.90;;;;;;5032439;28;20033;-70
2023/10/31 03:39:30;;;;;;;6.15;2.75;;;10.40;99.90;;;;;;5032898;28;20375;-70
2023/10/31 03:41:55;;;;;;;8.80;3.42;;;10.40;99.90;;;;;;5000356;28;20040;-70
2023/10/31 03:44:21;;;;;;;7.88;2.90;;;10.40;99.90;;;;;;5020733;28;20052;-70
2023/10/31 03:46:47;;;;;;;7.75;2.70;;;10.40;99.90;;;;;;5015347;28;20045;-70
2023/10/31 03:49:12;;;;;;;10.32;3.10;;;10.50;99.90;;;;;;5012865;28;20099;-70
2023/10/31 03:51:38;;;;;;;6.80;2.47;;;10.40;99.90;;;;;;5038841;28;20047;-70
2023/10/31 03:54:03;;;;;;;4.45;2.25;;;10.40;99.90;;;;;;5032401;28;20034;-70
2023/10/31 03:56:29;;;;;;;7.22;2.80;;;10.40;99.90;;;;;;5030508;28;20037;-71
2023/10/31 03:58:54;;;;;;;5.10;2.63;;;10.40;99.90;;;;;;5001222;28;20041;-71
2023/10/31 04:01:20;;;;;;;5.05;2.75;;;10.40;99.90;;;;;;5031620;28;20041;-71
2023/10/31 04:03:46;;;;;;;4.97;2.80;;;10.40;99.90;;;;;;5031454;28;20209;-71
2023/10/31 04:06:11;;;;;;;7.03;2.78;;;10.40;99.90;;;;;;5017323;28;20091;-72
2023/10/31 04:08:37;;;;;;;6.20;2.30;;;10.40;99.90;;;;;;5031615;28;20037;-71
2023/10/31 04:11:03;;;;;;;3.97;2.00;;;10.40;99.90;;;;;;5027924;28;20068;-71
2023/10/31 04:13:28;;;;;;;5.07;2.17;;;10.40;99.90;;;;;;5027840;28;20120;-71
2023/10/31 04:15:54;;;;;;;5.65;2.40;;;10.40;99.90;;;;;;5025477;28;20041;-71
2023/10/31 04:18:20;;;;;;;5.78;2.53;;;10.40;99.90;;;;;;5021061;28;20152;-71
2023/10/31 04:20:45;;;;;;;6.13;2.60;;;10.50;99.90;;;;;;5031172;28;20081;-71
2023/10/31 04:23:11;;;;;;;4.35;2.95;;;10.40;99.90;;;;;;5023843;28;20045;-71
2023/10/31 04:25:37;;;;;;;5.78;2.10;;;10.40;99.90;;;;;;5024521;28;20108;-71
2023/10/31 04:28:03;;;;;;;5.25;2.08;;;10.40;99.90;;;;;;5031345;28;20685;-71
2023/10/31 04:30:29;;;;;;;8.13;2.40;;;10.40;99.90;;;;;;5015991;28;20038;-71
2023/10/31 04:32:54;;;;;;;6.85;2.40;;;10.40;99.90;;;;;;5031633;28;20113;-71
2023/10/31 04:35:20;;;;;;;5.75;2.50;;;10.40;99.90;;;;;;5029634;28;20072;-72
2023/10/31 04:37:45;;;;;;;5.75;2.45;;;10.40;99.90;;;;;;5029536;28;20041;-71
2023/10/31 04:40:12;;;;;;;7.13;2.72;;;10.40;99.90;;;;;;5030530;28;20049;-70
2023/10/31 04:42:39;;;;;;;7.03;2.22;;;10.40;99.90;;;;;;5035731;28;20155;-70
2023/10/31 04:45:06;;;;;;;6.95;2.30;;;10.40;99.90;;;;;;5021270;28;20033;-70
2023/10/31 04:47:31;;;;;;;7.15;2.45;;;10.40;99.90;;;;;;5029755;28;20098;-70
2023/10/31 04:49:57;;;;;;;5.82;2.10;;;10.40;99.90;;;;;;5034156;28;20401;-71
2023/10/31 04:52:25;;;;;;;7.20;2.55;;;10.30;99.90;;;;;;5020333;28;20493;-70
2023/10/31 04:54:51;;;;;;;4.78;2.50;;;10.30;99.90;;;;;;5028816;28;20405;-69
2023/10/31 04:57:17;;;;;;;6.00;2.45;;;10.30;99.90;;;;;;5015065;28;20042;-70
2023/10/31 04:59:42;;;;;;;6.18;2.60;;;10.30;99.90;;;;;;5014492;28;20041;-70
2023/10/31 05:02:08;;;;;;;8.23;2.47;;;10.30;99.90;;;;;;5012930;28;20095;-70
2023/10/31 05:04:34;;;;;;;5.60;2.60;;;10.30;99.90;;;;;;5023481;28;20548;-70
2023/10/31 05:06:59;;;;;;;6.63;2.67;;;10.30;99.90;;;;;;5030179;28;20056;-70
2023/10/31 05:09:25;;;;;;;7.45;2.78;;;10.30;99.90;;;;;;5020325;28;20041;-70
2023/10/31 05:11:51;;;;;;;7.18;2.70;;;10.30;99.90;;;;;;5033101;28;20029;-71
2023/10/31 05:14:16;;;;;;;7.28;2.67;;;10.30;99.90;;;;;;5028378;28;20095;-70
2023/10/31 05:16:43;;;;;;;8.45;2.90;;;10.20;99.90;;;;;;5028795;28;20099;-70
2023/10/31 05:19:09;;;;;;;7.28;2.75;;;10.30;99.90;;;;;;5029011;28;20034;-70
2023/10/31 05:21:34;;;;;;;6.57;3.00;;;10.20;99.90;;;;;;5012856;28;20555;-70
2023/10/31 05:24:00;;;;;;;7.10;2.75;;;10.20;99.90;;;;;;5018035;28;20037;-70
2023/10/31 05:26:27;;;;;;;7.20;3.15;;;10.30;99.90;;;;;;5011329;28;20490;-70
2023/10/31 05:28:53;;;;;;;7.30;3.10;;;10.30;99.90;;;;;;5026115;28;20029;-70
2023/10/31 05:31:19;;;;;;;7.00;3.33;;;10.20;99.90;;;;;;5010877;28;20052;-70
2023/10/31 05:33:45;;;;;;;8.40;3.15;;;10.20;99.90;;;;;;5016830;28;20128;-70
2023/10/31 05:36:21;;;;;;;6.97;3.00;;;10.20;99.90;;;;;;5029716;28;20056;-70
2023/10/31 05:38:47;;;;;;;7.32;3.15;;;10.20;99.90;;;;;;4997186;28;20095;-70
2023/10/31 05:41:13;;;;;;;9.27;3.20;;;10.20;99.90;;;;;;5015843;28;20112;-70
2023/10/31 05:43:39;;;;;;;8.80;3.47;;;10.20;99.90;;;;;;5031170;28;20116;-70
2023/10/31 05:46:05;;;;;;;9.18;3.30;;;10.20;99.90;;;;;;5001901;28;20119;-70
2023/10/31 05:48:32;;;;;;;6.93;3.40;;;10.20;99.90;;;;;;5016703;28;20393;-70
2023/10/31 05:50:57;;;;;;;7.63;3.03;;;10.20;99.90;;;;;;5029662;28;20067;-70
2023/10/31 05:53:23;;;;;;;10.20;3.30;;;10.20;99.90;;;;;;5026354;28;20393;-70
2023/10/31 05:55:49;;;;;;;8.18;2.80;;;10.20;99.90;;;;;;5024051;28;20402;-70
2023/10/31 05:58:14;;;;;;;8.25;2.75;;;10.20;99.90;;;;;;5008311;28;20037;-70
2023/10/31 06:00:40;;;;;;;6.53;2.42;;;10.20;99.90;;;;;;5033090;28;20116;-70
2023/10/31 06:03:05;;;;;;;6.07;2.65;;;10.20;99.90;;;;;;5030035;28;20046;-72
2023/10/31 06:05:31;;;;;;;6.65;3.13;;;10.20;99.90;;;;;;5016192;28;20266;-70
2023/10/31 06:07:57;;;;;;;7.20;3.20;;;10.20;99.90;;;;;;5036281;28;20577;-70
2023/10/31 06:10:22;;;;;;;10.38;2.97;;;10.20;99.90;;;;;;5028373;28;20049;-70
2023/10/31 06:12:48;;;;;;;6.55;3.25;;;10.20;99.90;;;;;;5025489;28;20030;-70
2023/10/31 06:15:14;;;;;;;8.25;3.45;;;10.20;99.90;;;;;;5014383;28;20029;-70
2023/10/31 06:17:39;;;;;;;7.15;3.50;;;10.20;99.90;;;;;;5013441;28;20068;-71
2023/10/31 06:20:07;;;;;;;8.10;4.28;;;10.20;99.90;;;;;;5001027;28;20486;-70
2023/10/31 06:22:33;;;;;;;10.77;4.47;;;10.20;99.90;;;;;;5030717;28;20054;-70
2023/10/31 06:24:59;;;;;;;9.88;4.45;;;10.20;99.90;;;;;;5021823;28;20064;-70
2023/10/31 06:27:25;;;;;;;6.93;3.92;;;10.20;99.90;;;;;;5011206;28;20570;-71
2023/10/31 06:29:51;;;;;;;9.23;3.85;;;10.20;99.90;;;;;;5018284;28;20037;-67
2023/10/31 06:32:16;;;;;;;9.95;4.07;;;10.20;99.90;;;;;;5032240;28;20052;-71
2023/10/31 06:34:42;;;;;;;6.97;4.07;;;10.20;99.90;;;;;;5015921;28;20041;-72
2023/10/31 06:37:07;;;;;;;7.45;3.75;;;10.20;99.90;;;;;;5017474;28;20044;-72
2023/10/31 06:39:33;;;;;;;5.95;3.35;;;10.10;99.90;;;;;;5032861;28;20037;-71
2023/10/31 06:41:58;;;;;;;8.02;3.80;;;10.20;99.90;;;;;;5034239;28;20038;-72
2023/10/31 06:44:24;;;;;;;8.27;3.58;;;10.10;99.90;;;;;;5011513;28;20497;-71
2023/10/31 06:46:49;;;;;;;5.55;2.88;;;10.10;99.90;;;;;;5015808;28;20041;-71
2023/10/31 06:49:15;;;;;;;7.72;2.85;;;10.10;99.90;;;;;;5033711;28;20048;-71
2023/10/31 06:51:41;;;;;;;6.15;2.75;;;10.10;99.90;;;;;;5010748;28;20172;-69
2023/10/31 06:54:07;;;;;;;5.43;2.83;;;10.20;99.90;;;;;;5032372;28;20490;-70
2023/10/31 06:56:32;;;;;;;7.47;3.03;;;10.20;99.90;;;;;;5014989;28;20045;-71
2023/10/31 06:58:58;;;;;;;7.55;2.60;;;10.20;99.90;;;;;;5011933;28;20520;-71
2023/10/31 07:01:24;;;;;;;5.10;2.70;;;10.20;99.90;;;;;;5025501;28;20073;-72
2023/10/31 07:03:49;;;;;;;8.32;3.20;;;10.30;99.90;;;;;;5016850;28;20033;-72
2023/10/31 07:06:15;;;;;;;6.53;2.75;;;10.30;99.90;;;;;;5033784;28;20076;-67
2023/10/31 07:08:41;;;;;;;6.45;2.85;;;10.30;99.90;;;;;;5028763;28;20034;-66
2023/10/31 07:11:06;;;;;;;7.70;2.90;;;10.30;99.90;;;;;;5021378;28;20045;-65
2023/10/31 07:13:32;;;;;;;6.30;3.38;;;10.30;99.90;;;;;;5031816;28;20076;-65
2023/10/31 07:15:57;;;;;;;8.60;3.05;;;10.40;99.90;;;;;;5032140;28;20092;-65
2023/10/31 07:18:23;;;;;;;7.10;3.28;;;10.40;99.90;;;;;;5038338;28;20029;-66
2023/10/31 07:20:48;;;;;;;4.80;3.30;;;10.40;99.90;;;;;;5032333;28;20041;-66
2023/10/31 07:23:14;;;;;;;8.32;3.78;;;10.50;99.90;;;;;;5032481;28;20048;-66
2023/10/31 07:25:40;;;;;;;6.25;3.30;;;10.50;99.90;;;;;;5030874;28;20051;-66
2023/10/31 07:28:06;;;;;;;5.07;3.20;;;10.50;99.90;;;;;;5037590;28;20052;-66
2023/10/31 07:30:32;;;;;;;7.60;3.10;;;10.50;99.90;;;;;;5030002;28;20042;-68
2023/10/31 07:32:57;;;;;;;5.95;2.97;;;10.50;99.90;;;;;;5032360;28;20068;-68
2023/10/31 07:35:23;;;;;;;4.97;2.80;;;10.60;99.90;;;;;;5017231;28;20041;-67
2023/10/31 07:37:48;;;;;;;5.32;2.70;;;10.60;99.90;;;;;;5027627;28;20037;-69
2023/10/31 07:40:14;;;;;;;8.25;2.75;;;10.60;99.90;;;;;;5017181;28;20071;-68
2023/10/31 07:42:39;;;;;;;6.65;2.70;;;10.60;99.90;;;;;;5014429;28;20032;-68
2023/10/31 07:45:05;;;;;;;6.20;2.47;;;10.60;99.90;;;;;;5032288;28;20045;-68
2023/10/31 07:47:31;;;;;;;5.10;2.47;;;10.70;99.90;;;;;;5032869;28;20033;-68
2023/10/31 07:49:57;;;;;;;3.83;2.40;;;10.70;99.90;;;;;;5029422;28;20044;-68
2023/10/31 07:52:22;;;;;;;5.00;2.90;;;10.70;99.90;;;;;;5015647;28;20045;-68
2023/10/31 07:54:48;;;;;;;5.28;2.40;;;10.70;99.90;;;;;;5032486;28;20403;-68
2023/10/31 07:57:13;;;;;;;7.00;3.45;;;10.70;99.90;;;;;;5033731;28;20033;-68
2023/10/31 07:59:39;;;;;;;4.55;2.67;;;10.80;99.90;;;;;;5031956;28;20592;-67
2023/10/31 08:02:05;;;;;;;5.65;2.58;;;10.80;99.90;;;;;;5032667;28;20041;-68
2023/10/31 08:04:31;;;;;;;7.30;2.55;;;10.90;99.90;;;;;;5029072;28;20105;-68
2023/10/31 08:06:57;;;;;;;4.28;2.35;;;11.00;99.90;;;;;;5035216;28;20065;-68
2023/10/31 08:09:22;;;;;;;9.13;2.88;;;10.90;99.90;;;;;;5031167;28;20549;-69
2023/10/31 08:11:48;;;;;;;4.63;2.92;;;11.00;99.90;;;;;;5031837;28;20034;-69
2023/10/31 08:14:15;;;;;;;6.75;2.60;;;11.00;99.90;;;;;;5032878;28;20044;-68
2023/10/31 08:16:42;;;;;;;8.68;3.00;;;11.10;99.90;;;;;;5010517;28;20030;-68
2023/10/31 08:19:07;;;;;;;6.10;3.08;;;11.20;99.90;;;;;;5011691;28;20037;-68
2023/10/31 08:21:38;;;;;;;6.10;3.00;;;11.30;99.90;;;;;;5032071;28;20624;-68
2023/10/31 08:24:04;;;;;;;6.20;3.20;;;11.40;99.90;;;;;;5030447;28;20124;-69
2023/10/31 08:26:32;;;;;;;5.47;3.38;;;11.40;99.90;;;;;;5025615;28;20073;-68
2023/10/31 08:28:58;;;;;;;6.85;3.00;;;11.50;99.90;;;;;;5032910;28;20040;-68
2023/10/31 08:31:24;;;;;;;4.55;2.75;;;11.60;99.90;;;;;;5030321;28;20032;-69
2023/10/31 08:33:50;;;;;;;10.02;3.22;;;11.60;99.90;;;;;;5037234;28;20095;-68
2023/10/31 08:36:15;;;;;;;4.72;2.90;;;11.70;99.90;;;;;;5033404;28;20488;-68
2023/10/31 08:38:41;;;;;;;7.30;3.13;;;11.70;99.90;;;;;;5032011;28;20033;-68
2023/10/31 08:41:06;;;;;;;6.22;3.00;;;11.70;99.90;;;;;;5033893;28;20051;-70
2023/10/31 08:43:32;;;;;;;6.38;2.60;;;11.80;99.90;;;;;;5033223;28;20033;-71
2023/10/31 08:45:58;;;;;;;5.90;3.03;;;11.80;99.90;;;;;;5031729;28;20037;-69
2023/10/31 08:48:23;;;;;;;6.10;2.80;;;11.90;99.90;;;;;;5033445;28;20080;-69
2023/10/31 08:50:49;;;;;;;6.65;3.17;;;12.00;99.90;;;;;;5021982;28;20076;-69
2023/10/31 08:53:14;;;;;;;6.38;2.78;;;12.00;99.90;;;;;;5026689;28;20041;-68
2023/10/31 08:55:43;;;;;;;7.70;3.35;;;12.10;99.90;;;;;;5014777;28;20059;-68
2023/10/31 08:58:13;;;;;;;5.90;2.60;;;12.20;99.90;;;;;;5034730;28;20036;-68
2023/10/31 09:00:40;;;;;;;6.15;2.58;;;12.30;99.90;;;;;;5023520;28;20514;-68
2023/10/31 09:03:06;;;;;;;4.57;2.40;;;12.30;99.90;;;;;;5020906;28;20981;-68
2023/10/31 09:05:32;;;;;;;6.35;2.45;;;12.30;99.90;;;;;;5025165;28;20033;-68
2023/10/31 09:07:57;;;;;;;6.70;2.58;;;12.30;99.90;;;;;;5031013;28;20033;-68
2023/10/31 09:10:23;;;;;;;6.03;2.97;;;12.40;99.90;;;;;;5034155;28;20408;-69
2023/10/31 09:12:48;;;;;;;6.72;2.30;;;12.40;99.90;;;;;;5034342;28;20039;-69
2023/10/31 09:15:14;;;;;;;4.95;2.45;;;12.50;99.90;;;;;;5016822;28;20038;-69
2023/10/31 09:17:39;;;;;;;4.78;1.90;;;12.60;99.90;;;;;;5026256;28;20041;-69
2023/10/31 09:20:06;;;;;;;3.53;1.48;;;12.60;99.90;;;;;;5033389;28;20048;-69
2023/10/31 09:22:32;;;;;;;3.38;1.60;;;12.50;99.90;;;;;;5011521;28;20044;-69
2023/10/31 09:24:57;;;;;;;5.55;1.55;;;12.50;99.90;;;;;;5013500;28;20033;-72
2023/10/31 09:27:23;;;;;;;4.20;1.77;;;12.40;99.90;;;;;;5031625;28;20124;-71
2023/10/31 09:29:48;;;;;;;5.30;1.70;;;12.40;99.90;;;;;;5011218;28;20068;-71
2023/10/31 09:32:16;;;;;;;3.20;1.40;;;12.50;99.90;;;;;;5008105;28;20033;-71
2023/10/31 09:34:41;;;;;;;6.20;1.60;;;12.50;99.90;;;;;;5030604;28;20037;-71
2023/10/31 09:37:07;;;;;;;4.75;1.50;;;12.60;99.90;;;;;;5021117;28;20090;-71
2023/10/31 09:39:32;;;;;;;3.42;1.20;;;12.60;99.90;;;;;;5031129;28;20086;-71
2023/10/31 09:41:58;;;;;;;3.20;1.10;;;12.60;99.90;;;;;;5028301;28;20167;-71
2023/10/31 09:44:24;;;;;;;6.75;1.30;;;12.70;99.90;;;;;;5030269;28;20138;-71
2023/10/31 09:46:51;;;;;;;3.55;1.00;;;12.80;99.90;;;;;;5011554;28;20541;-71
2023/10/31 09:49:18;;;;;;;6.90;1.63;;;12.90;99.90;;;;;;5021835;28;20112;-71
2023/10/31 09:51:47;;;;;;;2.95;1.10;;;13.00;99.90;;;;;;5021580;28;20038;-71
2023/10/31 09:54:15;;;;;;;4.35;1.10;;;13.00;99.90;;;;;;5012797;28;20076;-71
2023/10/31 09:56:41;;;;;;;2.78;0.90;;;13.00;99.90;;;;;;5034027;28;20033;-73
2023/10/31 09:59:07;;;;;;;3.90;1.00;;;13.10;99.90;;;;;;5020749;28;20037;-71
2023/10/31 10:01:33;;;;;;;5.20;0.93;;;13.10;99.90;;;;;;5031589;28;20049;-72
2023/10/31 10:03:59;;;;;;;4.35;1.00;;;13.00;99.90;;;;;;5015549;28;20039;-72
2023/10/31 10:06:25;;;;;;;2.72;0.93;;;13.10;99.90;;;;;;5029418;28;20505;-72
2023/10/31 10:08:50;;;;;;;3.85;1.08;;;13.10;99.90;;;;;;5035209;28;20033;-71
2023/10/31 10:11:17;;;;;;;4.22;1.00;;;13.20;99.90;;;;;;5031693;28;20130;-71
2023/10/31 10:13:43;;;;;;;2.33;0.60;;;13.30;99.90;;;;;;5043642;28;20052;-71
2023/10/31 10:16:09;;;;;;;1.98;0.80;;;13.30;99.90;;;;;;5025085;28;20045;-71
2023/10/31 10:18:40;;;;;;;2.25;0.50;;;13.20;99.90;;;;;;5034372;28;20072;-71
2023/10/31 10:21:09;;;;;;;2.47;0.70;;;13.10;99.90;;;;;;5015786;28;20498;-71
2023/10/31 10:23:34;;;;;;;1.73;0.60;;;12.90;99.90;;;;;;5017153;28;20280;-71
2023/10/31 10:26:02;;;;;;;1.25;0.20;;;12.60;99.90;;;;;;5020375;28;20037;-73
2023/10/31 10:28:29;;;;;;;1.02;0.35;;;12.40;99.90;;;;;;5016627;28;20042;-71
2023/10/31 10:30:55;;;;;;;0.68;0.32;;;12.30;99.90;;;;;;5006082;28;20042;-70
2023/10/31 10:33:21;;;;;;;0.35;0.25;;;12.20;99.90;;;;;;5019411;28;20033;-71
2023/10/31 10:35:48;;;;;;;0.75;0.20;;;12.30;99.90;;;;;;5013700;28;20129;-71
2023/10/31 10:38:16;;;;;;;0.55;0.20;;;12.20;99.90;;;;;;5015753;28;20393;-71
2023/10/31 10:40:43;;;;;;;1.48;0.20;;;12.20;99.90;;;;;;5022420;28;20045;-70
2023/10/31 10:43:17;;;;;;;0.40;0.20;;;12.20;99.90;;;;;;5038381;28;20037;-71
2023/10/31 10:45:48;;;;;;;0.50;0.22;;;12.10;99.90;;;;;;5028231;28;20068;-70
2023/10/31 10:48:16;;;;;;;0.20;0.20;;;12.10;99.90;;;;;;5013792;28;20038;-70
2023/10/31 10:50:45;;;;;;;1.65;0.30;;;12.20;99.90;;;;;;5017147;28;20490;-71
2023/10/31 10:53:21;;;;;;;0.55;0.20;;;12.20;99.90;;;;;;5023393;28;20033;-71
2023/10/31 10:55:51;;;;;;;0.52;0.20;;;12.30;99.90;;;;;;5033047;28;20036;-71
2023/10/31 10:58:33;;;;;;;0.20;0.20;;;12.30;99.90;;;;;;5019427;28;20042;-72
2023/10/31 11:00:59;;;;;;;0.40;0.20;;;12.30;99.90;;;;;;5029770;28;20038;-72
2023/10/31 11:03:27;;;;;;;0.65;0.30;;;12.40;99.90;;;;;;5027179;28;20421;-72
2023/10/31 11:05:53;;;;;;;0.63;0.40;;;12.50;99.90;;;;;;5029323;28;20049;-72
2023/10/31 11:08:20;;;;;;;0.20;0.20;;;12.60;99.90;;;;;;5040594;28;20041;-72
2023/10/31 11:10:46;;;;;;;0.10;0.10;;;12.60;99.90;;;;;;5020983;28;20665;-71
2023/10/31 11:13:13;;;;;;;0.52;0.20;;;12.60;99.90;;;;;;5029112;28;20041;-70
2023/10/31 11:15:40;;;;;;;0.90;0.20;;;12.50;99.90;;;;;;5034226;28;20041;-71
2023/10/31 11:18:06;;;;;;;0.70;0.30;;;12.40;99.90;;;;;;5008943;28;20056;-71
2023/10/31 11:20:33;;;;;;;2.00;0.60;;;12.30;99.90;;;;;;4987661;28;20548;-72
2023/10/31 11:22:58;;;;;;;0.88;0.50;;;12.10;99.90;;;;;;5018249;28;20637;-72
2023/10/31 11:25:24;;;;;;;2.47;0.60;;;12.00;99.90;;;;;;5011469;28;20126;-72
2023/10/31 11:27:56;;;;;;;1.38;0.30;;;11.90;99.90;;;;;;5029345;28;20117;-71
2023/10/31 11:30:24;;;;;;;1.13;0.43;;;12.00;99.90;;;;;;5025130;28;20041;-70
2023/10/31 11:32:54;;;;;;;1.42;0.40;;;12.00;99.90;;;;;;5015636;28;20034;-70
2023/10/31 11:35:21;;;;;;;1.40;0.40;;;12.00;99.90;;;;;;5016016;28;20037;-70
2023/10/31 11:38:05;;;;;;;0.75;0.50;;;12.10;99.90;;;;;;5016727;28;20617;-70
2023/10/31 11:40:31;;;;;;;3.08;0.80;;;12.10;99.90;;;;;;5037700;28;20124;-69
2023/10/31 11:42:58;;;;;;;1.35;0.55;;;12.00;99.90;;;;;;5014916;28;20127;-70
2023/10/31 11:45:47;;;;;;;2.47;0.45;;;12.00;99.90;;;;;;5024755;28;20041;-70
2023/10/31 11:48:13;;;;;;;1.75;0.52;;;12.10;99.90;;;;;;5027463;28;20048;-69
2023/10/31 11:50:39;;;;;;;1.95;0.60;;;12.10;99.90;;;;;;5029379;28;20052;-70
2023/10/31 11:53:13;;;;;;;4.50;0.80;;;12.10;99.90;;;;;;5034463;28;20030;-69
2023/10/31 11:55:43;;;;;;;2.20;0.73;;;12.20;99.90;;;;;;5026018;28;20046;-70
2023/10/31 11:58:14;;;;;;;1.48;0.50;;;12.30;99.90;;;;;;5024598;28;20069;-71
2023/10/31 12:00:40;;;;;;;;;;;12.30;99.90;;;;;;5036584;28;20041;-71
2023/10/31 12:03:05;;;;;;;2.95;0.70;;;12.50;99.90;;;;;;5013883;28;20320;-70
2023/10/31 12:05:31;;;;;;;1.30;0.65;;;12.60;99.90;;;;;;5037012;28;20075;-69
2023/10/31 12:07:57;;;;;;;1.42;0.50;;;12.80;99.90;;;;;;5026547;28;20046;-69
2023/10/31 12:10:30;;;;;;;0.60;0.30;;;12.70;99.90;;;;;;5023580;28;20049;-69
2023/10/31 12:12:58;;;;;;;2.08;1.02;;;12.70;99.90;;;;;;5033518;28;20082;-70
2023/10/31 12:15:23;;;;;;;1.00;0.52;;;12.80;99.90;;;;;;5040808;28;20041;-69
2023/10/31 12:17:49;;;;;;;1.80;0.80;;;12.90;99.90;;;;;;5036499;28;20040;-70
2023/10/31 12:20:18;;;;;;;1.95;0.50;;;12.90;99.90;;;;;;5027379;28;20099;-70
2023/10/31 12:22:44;;;;;;;1.58;0.73;;;13.00;99.90;;;;;;5042036;28;20037;-70
2023/10/31 12:25:11;;;;;;;1.75;0.65;;;13.10;99.90;;;;;;5038002;28;20121;-70
2023/10/31 12:27:48;;;;;;;1.35;0.47;;;13.30;99.90;;;;;;4998715;28;20117;-70
2023/10/31 12:30:17;;;;;;;0.85;0.60;;;13.30;99.90;;;;;;5029470;28;20045;-70
2023/10/31 12:32:43;;;;;;;0.93;0.60;;;13.30;99.90;;;;;;5011966;28;20041;-70
2023/10/31 12:35:15;;;;;;;1.05;0.70;;;13.20;99.90;;;;;;5042119;28;20116;-70
2023/10/31 12:37:45;;;;;;;2.83;0.70;;;13.20;99.90;;;;;;5041362;28;20064;-70
2023/10/31 12:40:14;;;;;;;1.38;0.73;;;13.10;99.90;;;;;;5012848;28;20044;-70